ASX YSSY-YBTH
Flight info
| Callsign | ASX |
|---|---|
| Flight time | N/A |
| Altitude | 20000 |
| Route | TESAT A576 KADOM W386 BTH |
| Aircraft | B36T/L-BDFGLORY/S |
Departure
| Time | 2026-05-07 02:04 |
|---|---|
| Airport | Sydney Kingsford Smith International Airport (YSSY) |
Arrival
| Time | N/A |
|---|---|
| Airport | Bathurst Airport (YBTH) |
| Time | Latitude | Longitude | Altitude | Speed | Heading |
|---|---|---|---|---|---|
| 2026-05-07 01:48 | -33.93450 | 151.18807 | 24 ft | 0 kts | 189° |
| 2026-05-07 01:59 | -33.93527 | 151.18851 | 24 ft | 15 kts | 192° |
| 2026-05-07 01:59 | -33.93588 | 151.18860 | 24 ft | 0 kts | 121° |
| 2026-05-07 02:00 | -33.93619 | 151.18930 | 23 ft | 28 kts | 136° |
| 2026-05-07 02:00 | -33.93650 | 151.18947 | 22 ft | 0 kts | 143° |
| 2026-05-07 02:01 | -33.93670 | 151.18953 | 22 ft | 0 kts | 171° |
| 2026-05-07 02:02 | -33.93698 | 151.18959 | 20 ft | 15 kts | 162° |
| 2026-05-07 02:03 | -33.93747 | 151.18977 | 19 ft | 2 kts | 197° |
| 2026-05-07 02:03 | -33.93759 | 151.18962 | 19 ft | 0 kts | 249° |
| 2026-05-07 02:03 | -33.93761 | 151.18956 | 19 ft | 0 kts | 250° |
| 2026-05-07 02:03 | -33.93837 | 151.18644 | 58 ft | 73 kts | 252° |
| 2026-05-07 02:04 | -33.94040 | 151.17991 | 266 ft | 89 kts | 248° |
| 2026-05-07 02:04 | -33.94260 | 151.17312 | 656 ft | 83 kts | 248° |
| 2026-05-07 02:04 | -33.94545 | 151.16722 | 1071 ft | 80 kts | 260° |
| 2026-05-07 02:04 | -33.94199 | 151.16138 | 1369 ft | 95 kts | 301° |
| 2026-05-07 02:05 | -33.93978 | 151.15427 | 1658 ft | 97 kts | 279° |
| 2026-05-07 02:05 | -33.93742 | 151.14568 | 1940 ft | 124 kts | 282° |
| 2026-05-07 02:05 | -33.93458 | 151.13498 | 2248 ft | 141 kts | 283° |
| 2026-05-07 02:05 | -33.93156 | 151.12342 | 2524 ft | 147 kts | 283° |
| 2026-05-07 02:06 | -33.92850 | 151.11158 | 2784 ft | 148 kts | 283° |
| 2026-05-07 02:06 | -33.92610 | 151.10348 | 2962 ft | 65 kts | 283° |
| 2026-05-07 02:06 | -33.92489 | 151.09841 | 2876 ft | 84 kts | 278° |
| 2026-05-07 02:06 | -33.92283 | 151.09008 | 3186 ft | 117 kts | 283° |
| 2026-05-07 02:07 | -33.92018 | 151.08029 | 3482 ft | 127 kts | 283° |
| 2026-05-07 02:07 | -33.91462 | 151.05939 | 4036 ft | 133 kts | 282° |
| 2026-05-07 02:07 | -33.91191 | 151.04879 | 4302 ft | 133 kts | 281° |
| 2026-05-07 02:08 | -33.90898 | 151.03823 | 4560 ft | 134 kts | 279° |
| 2026-05-07 02:08 | -33.90615 | 151.02754 | 4825 ft | 135 kts | 279° |
| 2026-05-07 02:08 | -33.90332 | 151.01678 | 5078 ft | 134 kts | 278° |
| 2026-05-07 02:08 | -33.90048 | 151.00605 | 5338 ft | 135 kts | 278° |
| 2026-05-07 02:09 | -33.89764 | 150.99539 | 5642 ft | 131 kts | 278° |
| 2026-05-07 02:09 | -33.89492 | 150.98521 | 6026 ft | 131 kts | 277° |
| 2026-05-07 02:09 | -33.89203 | 150.97433 | 6500 ft | 137 kts | 276° |
| 2026-05-07 02:09 | -33.88913 | 150.96334 | 6941 ft | 142 kts | 277° |
| 2026-05-07 02:10 | -33.88603 | 150.95180 | 7408 ft | 144 kts | 278° |
| 2026-05-07 02:10 | -33.88302 | 150.94051 | 7859 ft | 144 kts | 278° |
| 2026-05-07 02:10 | -33.87994 | 150.92907 | 8334 ft | 144 kts | 279° |
| 2026-05-07 02:10 | -33.87684 | 150.91769 | 8795 ft | 143 kts | 279° |
| 2026-05-07 02:11 | -33.87395 | 150.90631 | 9300 ft | 142 kts | 279° |
| 2026-05-07 02:11 | -33.87096 | 150.89498 | 9779 ft | 141 kts | 280° |